sensor_id;sensor_type;location;lat;lon;timestamp;pressure;altitude;pressure_sealevel;temperature;humidity
49611;BME280;35515;48.766;9.176;2024-02-21T00:02:04;99372.69;;;7.66;86.68
49611;BME280;35515;48.766;9.176;2024-02-21T00:04:31;99366.75;;;7.63;86.80
49611;BME280;35515;48.766;9.176;2024-02-21T00:06:58;99362.19;;;7.55;87.47
49611;BME280;35515;48.766;9.176;2024-02-21T00:09:26;99362.19;;;7.55;86.95
49611;BME280;35515;48.766;9.176;2024-02-21T00:11:53;99361.19;;;7.64;86.68
49611;BME280;35515;48.766;9.176;2024-02-21T00:14:19;99360.38;;;7.64;86.44
49611;BME280;35515;48.766;9.176;2024-02-21T00:16:46;99354.59;;;7.50;87.20
49611;BME280;35515;48.766;9.176;2024-02-21T00:19:12;99363.81;;;7.40;88.26
49611;BME280;35515;48.766;9.176;2024-02-21T00:21:39;99354.25;;;7.45;88.82
49611;BME280;35515;48.766;9.176;2024-02-21T00:24:06;99353.28;;;7.55;88.30
49611;BME280;35515;48.766;9.176;2024-02-21T00:26:34;99348.22;;;7.60;87.76
49611;BME280;35515;48.766;9.176;2024-02-21T00:29:01;99329.66;;;7.57;87.59
49611;BME280;35515;48.766;9.176;2024-02-21T00:31:27;99328.31;;;7.52;87.85
49611;BME280;35515;48.766;9.176;2024-02-21T00:33:54;99325.78;;;7.59;86.76
49611;BME280;35515;48.766;9.176;2024-02-21T00:36:20;99320.75;;;7.56;86.91
49611;BME280;35515;48.766;9.176;2024-02-21T00:38:47;99326.25;;;7.46;88.11
49611;BME280;35515;48.766;9.176;2024-02-21T00:41:13;99331.00;;;7.44;88.54
49611;BME280;35515;48.766;9.176;2024-02-21T00:43:41;99324.44;;;7.55;87.10
49611;BME280;35515;48.766;9.176;2024-02-21T00:46:08;99319.69;;;7.49;88.19
49611;BME280;35515;48.766;9.176;2024-02-21T00:48:34;99312.84;;;7.71;86.04
49611;BME280;35515;48.766;9.176;2024-02-21T00:51:01;99314.47;;;7.56;86.74
49611;BME280;35515;48.766;9.176;2024-02-21T00:53:28;99313.34;;;7.66;86.00
49611;BME280;35515;48.766;9.176;2024-02-21T00:55:54;99312.47;;;7.58;87.06
49611;BME280;35515;48.766;9.176;2024-02-21T00:58:22;99308.91;;;7.49;87.24
49611;BME280;35515;48.766;9.176;2024-02-21T01:00:50;99303.03;;;7.62;86.45
49611;BME280;35515;48.766;9.176;2024-02-21T01:03:16;99308.41;;;7.45;87.96
49611;BME280;35515;48.766;9.176;2024-02-21T01:05:43;99305.81;;;7.27;88.85
49611;BME280;35515;48.766;9.176;2024-02-21T01:08:09;99299.97;;;7.40;88.48
49611;BME280;35515;48.766;9.176;2024-02-21T01:10:36;99294.59;;;7.40;87.88
49611;BME280;35515;48.766;9.176;2024-02-21T01:13:03;99297.28;;;7.48;87.23
49611;BME280;35515;48.766;9.176;2024-02-21T01:15:29;99286.84;;;7.45;87.54
49611;BME280;35515;48.766;9.176;2024-02-21T01:17:57;99272.66;;;7.27;88.78
49611;BME280;35515;48.766;9.176;2024-02-21T01:20:23;99270.78;;;7.27;88.38
49611;BME280;35515;48.766;9.176;2024-02-21T01:22:50;99262.75;;;7.44;87.75
49611;BME280;35515;48.766;9.176;2024-02-21T01:25:17;99253.47;;;7.46;88.55
49611;BME280;35515;48.766;9.176;2024-02-21T01:27:43;99248.41;;;7.51;86.46
49611;BME280;35515;48.766;9.176;2024-02-21T01:30:11;99260.53;;;7.39;87.31
49611;BME280;35515;48.766;9.176;2024-02-21T01:32:37;99250.41;;;7.33;87.18
49611;BME280;35515;48.766;9.176;2024-02-21T01:35:06;99249.75;;;7.39;86.83
49611;BME280;35515;48.766;9.176;2024-02-21T01:37:32;99243.72;;;7.45;86.50
49611;BME280;35515;48.766;9.176;2024-02-21T01:39:59;99240.16;;;7.45;86.90
49611;BME280;35515;48.766;9.176;2024-02-21T01:42:25;99238.16;;;7.55;85.35
49611;BME280;35515;48.766;9.176;2024-02-21T01:44:52;99237.81;;;7.58;85.60
49611;BME280;35515;48.766;9.176;2024-02-21T01:47:18;99227.38;;;7.55;85.46
49611;BME280;35515;48.766;9.176;2024-02-21T01:49:45;99221.97;;;7.47;85.89
49611;BME280;35515;48.766;9.176;2024-02-21T01:52:15;99214.88;;;7.38;86.41
49611;BME280;35515;48.766;9.176;2024-02-21T01:54:43;99213.19;;;7.53;84.98
49611;BME280;35515;48.766;9.176;2024-02-21T01:57:10;99202.25;;;7.55;84.51
49611;BME280;35515;48.766;9.176;2024-02-21T01:59:37;99199.72;;;7.61;84.18
49611;BME280;35515;48.766;9.176;2024-02-21T02:02:05;99203.94;;;7.64;83.10
49611;BME280;35515;48.766;9.176;2024-02-21T02:04:31;99197.53;;;7.81;80.80
49611;BME280;35515;48.766;9.176;2024-02-21T02:06:59;99202.41;;;7.69;82.45
49611;BME280;35515;48.766;9.176;2024-02-21T02:09:30;99197.22;;;7.60;82.46
49611;BME280;35515;48.766;9.176;2024-02-21T02:11:56;99192.47;;;7.70;82.01
49611;BME280;35515;48.766;9.176;2024-02-21T02:14:23;99191.13;;;7.66;82.37
49611;BME280;35515;48.766;9.176;2024-02-21T02:16:50;99187.06;;;7.70;82.06
49611;BME280;35515;48.766;9.176;2024-02-21T02:19:16;99200.56;;;7.62;82.40
49611;BME280;35515;48.766;9.176;2024-02-21T02:21:49;99187.41;;;7.75;80.88
49611;BME280;35515;48.766;9.176;2024-02-21T02:24:20;99177.97;;;7.71;81.01
49611;BME280;35515;48.766;9.176;2024-02-21T02:26:46;99175.44;;;7.53;82.27
49611;BME280;35515;48.766;9.176;2024-02-21T02:29:13;99165.16;;;7.65;81.25
49611;BME280;35515;48.766;9.176;2024-02-21T02:31:40;99155.56;;;7.62;81.32
49611;BME280;35515;48.766;9.176;2024-02-21T02:34:06;99160.13;;;7.53;82.12
49611;BME280;35515;48.766;9.176;2024-02-21T02:36:33;99162.63;;;7.72;80.74
49611;BME280;35515;48.766;9.176;2024-02-21T02:39:00;99159.28;;;7.69;80.64
49611;BME280;35515;48.766;9.176;2024-02-21T02:41:27;99152.38;;;7.59;81.27
49611;BME280;35515;48.766;9.176;2024-02-21T02:43:54;99150.81;;;7.81;79.24
49611;BME280;35515;48.766;9.176;2024-02-21T02:46:20;99147.09;;;7.82;79.10
49611;BME280;35515;48.766;9.176;2024-02-21T02:48:47;99144.56;;;7.89;78.78
49611;BME280;35515;48.766;9.176;2024-02-21T02:51:13;99141.53;;;7.83;79.07
49611;BME280;35515;48.766;9.176;2024-02-21T02:53:40;99127.38;;;7.90;78.63
49611;BME280;35515;48.766;9.176;2024-02-21T02:56:06;99131.78;;;7.66;80.66
49611;BME280;35515;48.766;9.176;2024-02-21T02:58:34;99120.50;;;7.62;81.84
49611;BME280;35515;48.766;9.176;2024-02-21T03:01:01;99105.69;;;7.66;82.19
49611;BME280;35515;48.766;9.176;2024-02-21T03:03:29;99109.38;;;7.49;84.05
49611;BME280;35515;48.766;9.176;2024-02-21T03:05:55;99085.78;;;7.59;83.71
49611;BME280;35515;48.766;9.176;2024-02-21T03:08:22;99081.94;;;7.45;84.65
49611;BME280;35515;48.766;9.176;2024-02-21T03:10:48;99095.91;;;7.49;85.86
49611;BME280;35515;48.766;9.176;2024-02-21T03:13:15;99107.88;;;7.55;86.29
49611;BME280;35515;48.766;9.176;2024-02-21T03:15:43;99100.31;;;7.42;87.38
49611;BME280;35515;48.766;9.176;2024-02-21T03:18:09;99102.84;;;7.35;88.74
49611;BME280;35515;48.766;9.176;2024-02-21T03:20:36;99126.75;;;7.46;87.98
49611;BME280;35515;48.766;9.176;2024-02-21T03:23:02;99142.75;;;7.40;88.65
49611;BME280;35515;48.766;9.176;2024-02-21T03:25:29;99135.19;;;7.18;90.81
49611;BME280;35515;48.766;9.176;2024-02-21T03:27:55;99125.06;;;7.20;92.03
49611;BME280;35515;48.766;9.176;2024-02-21T03:30:22;99124.91;;;7.47;89.81
49611;BME280;35515;48.766;9.176;2024-02-21T03:32:51;99121.03;;;7.58;88.47
49611;BME280;35515;48.766;9.176;2024-02-21T03:35:17;99116.31;;;7.43;89.79
49611;BME280;35515;48.766;9.176;2024-02-21T03:37:44;99094.59;;;7.28;90.50
49611;BME280;35515;48.766;9.176;2024-02-21T03:40:11;99090.91;;;7.21;90.28
49611;BME280;35515;48.766;9.176;2024-02-21T03:42:38;99075.91;;;7.18;90.20
49611;BME280;35515;48.766;9.176;2024-02-21T03:45:05;99079.72;;;7.49;88.57
49611;BME280;35515;48.766;9.176;2024-02-21T03:47:32;99075.34;;;7.64;86.40
49611;BME280;35515;48.766;9.176;2024-02-21T03:50:00;99075.19;;;7.49;86.37
49611;BME280;35515;48.766;9.176;2024-02-21T03:52:26;99094.38;;;7.46;85.54
49611;BME280;35515;48.766;9.176;2024-02-21T03:54:53;99091.00;;;7.61;84.48
49611;BME280;35515;48.766;9.176;2024-02-21T03:57:20;99083.28;;;7.49;85.65
49611;BME280;35515;48.766;9.176;2024-02-21T03:59:46;99087.50;;;7.35;88.23
49611;BME280;35515;48.766;9.176;2024-02-21T04:02:16;99082.28;;;7.42;87.42
49611;BME280;35515;48.766;9.176;2024-02-21T04:04:43;99079.94;;;7.39;88.36
49611;BME280;35515;48.766;9.176;2024-02-21T04:07:12;99066.81;;;7.36;90.20
49611;BME280;35515;48.766;9.176;2024-02-21T04:09:39;99069.50;;;7.36;89.34
49611;BME280;35515;48.766;9.176;2024-02-21T04:12:08;99061.22;;;7.46;88.35
49611;BME280;35515;48.766;9.176;2024-02-21T04:14:34;99061.72;;;7.49;85.95
49611;BME280;35515;48.766;9.176;2024-02-21T04:17:01;99058.28;;;7.72;82.02
49611;BME280;35515;48.766;9.176;2024-02-21T04:19:27;99056.84;;;7.36;84.29
49611;BME280;35515;48.766;9.176;2024-02-21T04:21:56;99046.88;;;7.53;82.78
49611;BME280;35515;48.766;9.176;2024-02-21T04:24:24;99038.47;;;7.48;82.74
49611;BME280;35515;48.766;9.176;2024-02-21T04:26:50;99025.34;;;7.37;81.77
49611;BME280;35515;48.766;9.176;2024-02-21T04:29:17;99028.38;;;7.34;82.34
49611;BME280;35515;48.766;9.176;2024-02-21T04:31:43;99045.53;;;7.49;81.57
49611;BME280;35515;48.766;9.176;2024-02-21T04:34:10;99045.88;;;7.46;82.27
49611;BME280;35515;48.766;9.176;2024-02-21T04:36:37;99038.75;;;7.62;79.75
49611;BME280;35515;48.766;9.176;2024-02-21T04:39:03;99027.31;;;7.51;80.81
49611;BME280;35515;48.766;9.176;2024-02-21T04:41:31;99025.50;;;7.35;81.76
49611;BME280;35515;48.766;9.176;2024-02-21T04:43:58;99017.88;;;7.56;79.40
49611;BME280;35515;48.766;9.176;2024-02-21T04:46:24;99015.06;;;7.41;80.69
49611;BME280;35515;48.766;9.176;2024-02-21T04:48:51;99033.59;;;7.35;81.34
49611;BME280;35515;48.766;9.176;2024-02-21T04:51:17;99031.06;;;7.42;81.04
49611;BME280;35515;48.766;9.176;2024-02-21T04:53:44;99020.59;;;7.47;80.77
49611;BME280;35515;48.766;9.176;2024-02-21T04:56:11;99022.13;;;7.42;80.40
49611;BME280;35515;48.766;9.176;2024-02-21T04:58:39;99029.88;;;7.36;82.06
49611;BME280;35515;48.766;9.176;2024-02-21T05:01:05;99020.66;;;7.31;82.99
49611;BME280;35515;48.766;9.176;2024-02-21T05:03:33;99026.97;;;7.63;78.14
49611;BME280;35515;48.766;9.176;2024-02-21T05:05:59;99037.28;;;7.51;77.97
49611;BME280;35515;48.766;9.176;2024-02-21T05:08:26;99043.34;;;7.45;78.12
49611;BME280;35515;48.766;9.176;2024-02-21T05:10:52;99049.25;;;7.40;79.47
49611;BME280;35515;48.766;9.176;2024-02-21T05:13:19;99039.50;;;7.39;78.81
49611;BME280;35515;48.766;9.176;2024-02-21T05:15:47;99044.22;;;7.29;79.98
49611;BME280;35515;48.766;9.176;2024-02-21T05:18:13;99043.72;;;7.33;79.48
49611;BME280;35515;48.766;9.176;2024-02-21T05:20:40;99032.25;;;7.48;77.64
49611;BME280;35515;48.766;9.176;2024-02-21T05:23:06;99033.91;;;7.49;78.06
49611;BME280;35515;48.766;9.176;2024-02-21T05:25:33;99030.91;;;7.35;78.70
49611;BME280;35515;48.766;9.176;2024-02-21T05:27:59;99021.66;;;7.22;79.91
49611;BME280;35515;48.766;9.176;2024-02-21T05:30:27;98989.53;;;7.12;80.25
49611;BME280;35515;48.766;9.176;2024-02-21T05:32:55;98996.72;;;7.36;77.56
49611;BME280;35515;48.766;9.176;2024-02-21T05:35:25;98993.66;;;7.39;77.59
49611;BME280;35515;48.766;9.176;2024-02-21T05:37:51;98991.06;;;7.70;75.22
49611;BME280;35515;48.766;9.176;2024-02-21T05:40:18;98991.25;;;7.52;75.38
49611;BME280;35515;48.766;9.176;2024-02-21T05:42:45;98983.84;;;7.55;75.68
49611;BME280;35515;48.766;9.176;2024-02-21T05:45:11;98987.09;;;7.42;76.32
49611;BME280;35515;48.766;9.176;2024-02-21T05:47:38;98980.53;;;7.36;77.45
49611;BME280;35515;48.766;9.176;2024-02-21T05:50:06;98973.34;;;7.68;74.86
49611;BME280;35515;48.766;9.176;2024-02-21T05:52:34;98970.09;;;7.41;76.04
49611;BME280;35515;48.766;9.176;2024-02-21T05:55:00;98961.09;;;7.49;75.96
49611;BME280;35515;48.766;9.176;2024-02-21T05:57:27;98967.69;;;7.55;75.12
49611;BME280;35515;48.766;9.176;2024-02-21T05:59:53;98964.34;;;7.44;76.80
49611;BME280;35515;48.766;9.176;2024-02-21T06:02:20;98961.66;;;7.36;76.84
49611;BME280;35515;48.766;9.176;2024-02-21T06:04:46;98960.31;;;7.40;76.17
49611;BME280;35515;48.766;9.176;2024-02-21T06:07:14;98973.09;;;7.38;76.72
49611;BME280;35515;48.766;9.176;2024-02-21T06:09:41;98965.69;;;7.40;76.42
49611;BME280;35515;48.766;9.176;2024-02-21T06:12:07;98977.38;;;7.24;77.68
49611;BME280;35515;48.766;9.176;2024-02-21T06:14:34;98976.91;;;7.04;78.65
49611;BME280;35515;48.766;9.176;2024-02-21T06:17:00;98976.19;;;7.27;77.92
49611;BME280;35515;48.766;9.176;2024-02-21T06:19:27;98973.19;;;7.05;79.96
49611;BME280;35515;48.766;9.176;2024-02-21T06:21:54;98970.44;;;7.30;77.99
49611;BME280;35515;48.766;9.176;2024-02-21T06:24:22;98970.47;;;7.13;77.72
49611;BME280;35515;48.766;9.176;2024-02-21T06:26:48;98972.97;;;7.23;77.04
49611;BME280;35515;48.766;9.176;2024-02-21T06:29:15;98973.81;;;7.32;77.54
49611;BME280;35515;48.766;9.176;2024-02-21T06:31:41;98976.19;;;7.27;77.70
49611;BME280;35515;48.766;9.176;2024-02-21T06:34:08;98984.81;;;7.06;79.11
49611;BME280;35515;48.766;9.176;2024-02-21T06:36:34;98983.97;;;6.97;80.63
49611;BME280;35515;48.766;9.176;2024-02-21T06:39:01;98994.22;;;7.10;81.73
49611;BME280;35515;48.766;9.176;2024-02-21T06:41:31;99000.13;;;7.05;81.45
49611;BME280;35515;48.766;9.176;2024-02-21T06:43:59;99002.00;;;6.88;82.72
49611;BME280;35515;48.766;9.176;2024-02-21T06:46:27;98996.44;;;6.81;83.11
49611;BME280;35515;48.766;9.176;2024-02-21T06:48:54;98988.69;;;6.95;82.50
49611;BME280;35515;48.766;9.176;2024-02-21T06:51:22;98990.38;;;6.79;83.58
49611;BME280;35515;48.766;9.176;2024-02-21T06:53:49;98974.38;;;6.86;82.55
49611;BME280;35515;48.766;9.176;2024-02-21T06:56:16;98969.16;;;6.93;81.31
49611;BME280;35515;48.766;9.176;2024-02-21T06:58:44;98962.06;;;7.08;79.53
49611;BME280;35515;48.766;9.176;2024-02-21T07:01:11;98968.59;;;7.22;77.42
49611;BME280;35515;48.766;9.176;2024-02-21T07:03:38;98959.31;;;7.33;76.00
49611;BME280;35515;48.766;9.176;2024-02-21T07:06:04;98966.75;;;7.31;75.48
49611;BME280;35515;48.766;9.176;2024-02-21T07:08:31;98955.66;;;7.17;76.93
49611;BME280;35515;48.766;9.176;2024-02-21T07:10:57;98962.53;;;7.28;76.04
49611;BME280;35515;48.766;9.176;2024-02-21T07:13:24;98955.28;;;7.37;75.30
49611;BME280;35515;48.766;9.176;2024-02-21T07:15:52;98953.91;;;7.41;75.46
49611;BME280;35515;48.766;9.176;2024-02-21T07:18:18;98952.88;;;7.42;74.80
49611;BME280;35515;48.766;9.176;2024-02-21T07:20:45;98948.81;;;7.46;74.29
49611;BME280;35515;48.766;9.176;2024-02-21T07:23:11;98944.13;;;7.40;74.73
49611;BME280;35515;48.766;9.176;2024-02-21T07:25:38;98944.16;;;7.32;75.98
49611;BME280;35515;48.766;9.176;2024-02-21T07:28:05;98937.09;;;7.31;75.91
49611;BME280;35515;48.766;9.176;2024-02-21T07:30:31;98948.81;;;7.46;75.14
49611;BME280;35515;48.766;9.176;2024-02-21T07:32:59;98945.69;;;7.34;76.28
49611;BME280;35515;48.766;9.176;2024-02-21T07:35:26;98941.78;;;7.37;76.58
49611;BME280;35515;48.766;9.176;2024-02-21T07:37:52;98936.09;;;7.32;75.94
49611;BME280;35515;48.766;9.176;2024-02-21T07:40:19;98931.91;;;7.61;74.45
49611;BME280;35515;48.766;9.176;2024-02-21T07:42:45;98930.97;;;7.45;75.93
49611;BME280;35515;48.766;9.176;2024-02-21T07:45:12;98930.44;;;7.50;75.48
49611;BME280;35515;48.766;9.176;2024-02-21T07:47:38;98921.81;;;7.63;75.00
49611;BME280;35515;48.766;9.176;2024-02-21T07:50:08;98916.03;;;7.66;74.43
49611;BME280;35515;48.766;9.176;2024-02-21T07:52:34;98900.72;;;7.66;74.87
49611;BME280;35515;48.766;9.176;2024-02-21T07:55:01;98901.19;;;7.70;73.97
49611;BME280;35515;48.766;9.176;2024-02-21T07:57:28;98903.63;;;7.57;75.47
49611;BME280;35515;48.766;9.176;2024-02-21T07:59:55;98903.56;;;7.65;74.97
49611;BME280;35515;48.766;9.176;2024-02-21T08:02:21;98902.25;;;7.61;75.00
49611;BME280;35515;48.766;9.176;2024-02-21T08:04:48;98903.56;;;7.65;74.91
49611;BME280;35515;48.766;9.176;2024-02-21T08:07:16;98894.56;;;7.49;76.21
49611;BME280;35515;48.766;9.176;2024-02-21T08:09:42;98895.03;;;7.84;73.57
49611;BME280;35515;48.766;9.176;2024-02-21T08:12:09;98903.38;;;7.98;73.09
49611;BME280;35515;48.766;9.176;2024-02-21T08:14:35;98901.19;;;7.70;75.32
49611;BME280;35515;48.766;9.176;2024-02-21T08:17:02;98900.38;;;7.93;74.07
49611;BME280;35515;48.766;9.176;2024-02-21T08:19:29;98908.91;;;7.81;74.89
49611;BME280;35515;48.766;9.176;2024-02-21T08:21:55;98907.31;;;7.64;76.60
49611;BME280;35515;48.766;9.176;2024-02-21T08:24:23;98902.50;;;7.82;75.90
49611;BME280;35515;48.766;9.176;2024-02-21T08:26:50;98915.69;;;7.69;76.63
49611;BME280;35515;48.766;9.176;2024-02-21T08:29:16;98912.75;;;7.87;76.07
49611;BME280;35515;48.766;9.176;2024-02-21T08:31:43;98917.16;;;7.80;76.24
49611;BME280;35515;48.766;9.176;2024-02-21T08:34:09;98908.34;;;7.86;76.59
49611;BME280;35515;48.766;9.176;2024-02-21T08:36:36;98902.56;;;7.97;75.71
49611;BME280;35515;48.766;9.176;2024-02-21T08:39:03;98900.81;;;8.04;74.45
49611;BME280;35515;48.766;9.176;2024-02-21T08:41:32;98878.09;;;7.99;75.19
49611;BME280;35515;48.766;9.176;2024-02-21T08:43:59;98872.94;;;8.12;74.65
49611;BME280;35515;48.766;9.176;2024-02-21T08:46:25;98875.47;;;8.14;74.28
49611;BME280;35515;48.766;9.176;2024-02-21T08:48:52;98875.94;;;8.17;73.94
49611;BME280;35515;48.766;9.176;2024-02-21T08:51:19;98871.94;;;8.13;74.49
49611;BME280;35515;48.766;9.176;2024-02-21T08:53:46;98875.94;;;8.17;73.87
49611;BME280;35515;48.766;9.176;2024-02-21T08:56:13;98875.34;;;8.30;74.37
49611;BME280;35515;48.766;9.176;2024-02-21T08:58:41;98869.75;;;8.32;73.66
49611;BME280;35515;48.766;9.176;2024-02-21T09:01:08;98866.88;;;8.33;73.45
49611;BME280;35515;48.766;9.176;2024-02-21T09:03:36;98864.56;;;8.30;73.05
49611;BME280;35515;48.766;9.176;2024-02-21T09:06:03;98860.19;;;8.44;72.61
49611;BME280;35515;48.766;9.176;2024-02-21T09:08:30;98859.25;;;8.37;72.91
49611;BME280;35515;48.766;9.176;2024-02-21T09:10:56;98845.09;;;8.35;73.35
49611;BME280;35515;48.766;9.176;2024-02-21T09:13:23;98844.97;;;8.28;72.60
49611;BME280;35515;48.766;9.176;2024-02-21T09:15:51;98850.13;;;8.38;73.35
49611;BME280;35515;48.766;9.176;2024-02-21T09:18:18;98838.97;;;8.41;72.97
49611;BME280;35515;48.766;9.176;2024-02-21T09:20:45;98843.88;;;8.61;71.91
49611;BME280;35515;48.766;9.176;2024-02-21T09:23:12;98840.97;;;8.62;70.88
49611;BME280;35515;48.766;9.176;2024-02-21T09:25:39;98833.44;;;8.58;70.91
49611;BME280;35515;48.766;9.176;2024-02-21T09:28:06;98834.03;;;8.45;71.99
49611;BME280;35515;48.766;9.176;2024-02-21T09:30:32;98832.03;;;8.47;71.72
49611;BME280;35515;48.766;9.176;2024-02-21T09:33:00;98835.75;;;8.46;72.18
49611;BME280;35515;48.766;9.176;2024-02-21T09:35:27;98824.41;;;8.50;72.46
49611;BME280;35515;48.766;9.176;2024-02-21T09:37:54;98826.16;;;8.58;70.36
49611;BME280;35515;48.766;9.176;2024-02-21T09:40:21;98823.06;;;8.46;70.59
49611;BME280;35515;48.766;9.176;2024-02-21T09:42:48;98820.38;;;8.46;72.52
49611;BME280;35515;48.766;9.176;2024-02-21T09:45:20;98819.25;;;8.56;72.54
49611;BME280;35515;48.766;9.176;2024-02-21T09:48:01;98814.81;;;8.63;71.95
49611;BME280;35515;48.766;9.176;2024-02-21T09:50:31;98812.03;;;8.71;70.74
49611;BME280;35515;48.766;9.176;2024-02-21T09:52:58;98806.91;;;8.76;70.42
49611;BME280;35515;48.766;9.176;2024-02-21T09:55:27;98808.03;;;8.82;69.14
49611;BME280;35515;48.766;9.176;2024-02-21T09:57:57;98808.22;;;8.80;68.91
49611;BME280;35515;48.766;9.176;2024-02-21T10:00:24;98812.78;;;8.95;68.88
49611;BME280;35515;48.766;9.176;2024-02-21T10:02:51;98800.84;;;9.04;66.88
49611;BME280;35515;48.766;9.176;2024-02-21T10:05:19;98804.19;;;8.91;66.89
49611;BME280;35515;48.766;9.176;2024-02-21T10:07:46;98802.53;;;9.05;66.00
49611;BME280;35515;48.766;9.176;2024-02-21T10:10:14;98795.81;;;9.01;66.77
49611;BME280;35515;48.766;9.176;2024-02-21T10:12:48;98786.97;;;8.92;68.00
49611;BME280;35515;48.766;9.176;2024-02-21T10:15:19;98784.06;;;8.94;67.19
49611;BME280;35515;48.766;9.176;2024-02-21T10:17:46;98772.25;;;8.95;66.62
49611;BME280;35515;48.766;9.176;2024-02-21T10:20:13;98772.88;;;8.97;67.60
49611;BME280;35515;48.766;9.176;2024-02-21T10:22:42;98771.13;;;9.04;66.30
49611;BME280;35515;48.766;9.176;2024-02-21T10:25:08;98761.34;;;9.03;67.77
49611;BME280;35515;48.766;9.176;2024-02-21T10:27:36;98759.28;;;9.05;66.88
49611;BME280;35515;48.766;9.176;2024-02-21T10:30:03;98751.00;;;9.07;67.83
49611;BME280;35515;48.766;9.176;2024-02-21T10:32:30;98745.00;;;9.11;67.09
49611;BME280;35515;48.766;9.176;2024-02-21T10:35:01;98750.75;;;9.23;65.12
49611;BME280;35515;48.766;9.176;2024-02-21T10:37:28;98752.97;;;9.34;65.62
49611;BME280;35515;48.766;9.176;2024-02-21T10:39:56;98739.91;;;9.38;63.25
49611;BME280;35515;48.766;9.176;2024-02-21T10:42:23;98742.25;;;9.41;63.91
49611;BME280;35515;48.766;9.176;2024-02-21T10:44:52;98742.50;;;9.46;63.84
49611;BME280;35515;48.766;9.176;2024-02-21T10:47:21;98738.38;;;9.72;61.93
49611;BME280;35515;48.766;9.176;2024-02-21T10:49:57;98731.16;;;9.58;63.33
49611;BME280;35515;48.766;9.176;2024-02-21T10:52:32;98723.69;;;9.60;62.17
49611;BME280;35515;48.766;9.176;2024-02-21T10:55:10;98719.56;;;9.64;61.90
49611;BME280;35515;48.766;9.176;2024-02-21T10:57:37;98714.94;;;9.58;63.29
49611;BME280;35515;48.766;9.176;2024-02-21T11:00:05;98705.50;;;9.75;62.52
49611;BME280;35515;48.766;9.176;2024-02-21T11:02:33;98705.44;;;9.68;63.07
49611;BME280;35515;48.766;9.176;2024-02-21T11:05:01;98696.50;;;9.68;62.94
49611;BME280;35515;48.766;9.176;2024-02-21T11:07:30;98693.59;;;9.69;63.15
49611;BME280;35515;48.766;9.176;2024-02-21T11:09:58;98695.91;;;9.73;62.99
49611;BME280;35515;48.766;9.176;2024-02-21T11:12:26;98689.00;;;9.92;61.51
49611;BME280;35515;48.766;9.176;2024-02-21T11:15:03;98685.66;;;9.90;62.15
49611;BME280;35515;48.766;9.176;2024-02-21T11:17:30;98675.69;;;9.97;61.04
49611;BME280;35515;48.766;9.176;2024-02-21T11:19:57;98665.53;;;9.99;60.57
49611;BME280;35515;48.766;9.176;2024-02-21T11:22:24;98665.47;;;9.92;61.72
49611;BME280;35515;48.766;9.176;2024-02-21T11:24:54;98663.22;;;9.96;60.13
49611;BME280;35515;48.766;9.176;2024-02-21T11:27:23;98655.72;;;9.98;60.67
49611;BME280;35515;48.766;9.176;2024-02-21T11:29:56;98648.31;;;10.07;60.90
49611;BME280;35515;48.766;9.176;2024-02-21T11:32:25;98631.66;;;10.10;60.15
49611;BME280;35515;48.766;9.176;2024-02-21T11:34:55;98637.13;;;10.16;59.34
49611;BME280;35515;48.766;9.176;2024-02-21T11:37:26;98635.50;;;10.29;58.42
49611;BME280;35515;48.766;9.176;2024-02-21T11:39:53;98614.44;;;10.17;59.15
49611;BME280;35515;48.766;9.176;2024-02-21T11:42:20;98618.84;;;10.25;58.50
49611;BME280;35515;48.766;9.176;2024-02-21T11:44:47;98615.28;;;10.25;58.48
49611;BME280;35515;48.766;9.176;2024-02-21T11:47:15;98613.81;;;10.22;58.96
49611;BME280;35515;48.766;9.176;2024-02-21T11:49:43;98606.13;;;10.26;57.36
49611;BME280;35515;48.766;9.176;2024-02-21T11:52:11;98601.22;;;10.36;55.37
49611;BME280;35515;48.766;9.176;2024-02-21T11:54:41;98597.53;;;10.50;54.93
49611;BME280;35515;48.766;9.176;2024-02-21T11:57:07;98586.00;;;10.35;56.08
49611;BME280;35515;48.766;9.176;2024-02-21T11:59:34;98584.78;;;10.44;55.72
49611;BME280;35515;48.766;9.176;2024-02-21T12:02:01;98574.75;;;10.38;55.35
49611;BME280;35515;48.766;9.176;2024-02-21T12:04:30;98560.59;;;10.36;53.84
49611;BME280;35515;48.766;9.176;2024-02-21T12:06:57;98572.69;;;10.40;55.25
49611;BME280;35515;48.766;9.176;2024-02-21T12:09:24;98571.72;;;10.54;54.34
49611;BME280;35515;48.766;9.176;2024-02-21T12:11:57;98573.56;;;10.54;54.36
49611;BME280;35515;48.766;9.176;2024-02-21T12:14:25;98552.53;;;10.49;55.58
49611;BME280;35515;48.766;9.176;2024-02-21T12:16:51;98556.50;;;10.53;53.63
49611;BME280;35515;48.766;9.176;2024-02-21T12:19:18;98548.59;;;10.59;57.29
49611;BME280;35515;48.766;9.176;2024-02-21T12:21:48;98547.97;;;10.63;53.69
49611;BME280;35515;48.766;9.176;2024-02-21T12:24:16;98531.72;;;10.63;52.25
49611;BME280;35515;48.766;9.176;2024-02-21T12:26:43;98527.56;;;10.67;52.63
49611;BME280;35515;48.766;9.176;2024-02-21T12:29:10;98525.47;;;10.63;54.59
49611;BME280;35515;48.766;9.176;2024-02-21T12:31:36;98517.16;;;10.71;54.73
49611;BME280;35515;48.766;9.176;2024-02-21T12:34:03;98503.19;;;10.87;52.03
49611;BME280;35515;48.766;9.176;2024-02-21T12:36:30;98514.69;;;10.96;50.07
49611;BME280;35515;48.766;9.176;2024-02-21T12:38:58;98504.25;;;10.86;49.81
49611;BME280;35515;48.766;9.176;2024-02-21T12:41:26;98499.88;;;10.85;49.98
49611;BME280;35515;48.766;9.176;2024-02-21T12:43:52;98490.28;;;10.83;51.67
49611;BME280;35515;48.766;9.176;2024-02-21T12:46:19;98480.06;;;10.85;51.11
49611;BME280;35515;48.766;9.176;2024-02-21T12:48:45;98481.13;;;10.91;50.42
49611;BME280;35515;48.766;9.176;2024-02-21T12:51:12;98484.66;;;10.98;48.97
49611;BME280;35515;48.766;9.176;2024-02-21T12:53:40;98461.94;;;10.99;51.68
49611;BME280;35515;48.766;9.176;2024-02-21T12:56:08;98464.00;;;10.97;51.17
49611;BME280;35515;48.766;9.176;2024-02-21T12:58:35;98456.94;;;11.09;50.25
49611;BME280;35515;48.766;9.176;2024-02-21T13:01:01;98457.53;;;11.11;50.87
49611;BME280;35515;48.766;9.176;2024-02-21T13:03:28;98456.28;;;11.27;50.08
49611;BME280;35515;48.766;9.176;2024-02-21T13:05:55;98437.31;;;11.14;49.91
49611;BME280;35515;48.766;9.176;2024-02-21T13:08:22;98434.59;;;11.07;51.40
49611;BME280;35515;48.766;9.176;2024-02-21T13:10:48;98425.84;;;11.12;50.43